Time;durP1;ratioP1;P1;durP2;ratioP2;P2;SDS_P1;SDS_P2;PMS_P1;PMS_P2;Temp;Humidity;BMP_temperature;BMP_pressure;BME280_temperature;BME280_humidity;BME280_pressure;Samples;Min_cycle;Max_cycle;Signal;HPM_P1;HPM_P2
2021/03/12 00:00:44;;;;;;;0.65;0.40;;;5.60;99.90;;;;;;5014918;28;20026;-67
2021/03/12 00:03:20;;;;;;;1.27;0.40;;;5.70;99.90;;;;;;4997566;28;20042;-67
2021/03/12 00:05:55;;;;;;;0.40;0.38;;;6.00;99.90;;;;;;5014868;28;20070;-66
2021/03/12 00:08:31;;;;;;;1.00;0.32;;;6.20;99.90;;;;;;5014223;28;20058;-67
2021/03/12 00:10:57;;;;;;;2.67;1.00;;;6.10;99.90;;;;;;5014620;28;20494;-67
2021/03/12 00:13:25;;;;;;;0.30;0.17;;;6.10;99.90;;;;;;4997099;28;20038;-67
2021/03/12 00:15:51;;;;;;;2.30;0.50;;;6.10;99.90;;;;;;5014528;28;20036;-66
2021/03/12 00:18:20;;;;;;;2.33;0.82;;;6.10;99.90;;;;;;5014585;28;20030;-67
2021/03/12 00:20:46;;;;;;;3.95;0.30;;;6.10;99.90;;;;;;5014563;28;20418;-67
2021/03/12 00:23:12;;;;;;;2.47;0.57;;;6.10;99.90;;;;;;5014647;28;20029;-67
2021/03/12 00:25:42;;;;;;;6.10;0.63;;;6.10;99.90;;;;;;5014430;28;20566;-67
2021/03/12 00:28:09;;;;;;;1.20;0.40;;;6.10;99.90;;;;;;4996864;28;20026;-67
2021/03/12 00:30:36;;;;;;;1.23;0.60;;;6.10;99.90;;;;;;5014062;28;20030;-66
2021/03/12 00:33:04;;;;;;;2.00;0.63;;;6.30;99.90;;;;;;5014258;28;20482;-67
2021/03/12 00:35:32;;;;;;;1.45;0.43;;;6.30;99.90;;;;;;5014282;28;20475;-66
2021/03/12 00:37:58;;;;;;;1.90;0.60;;;6.30;99.90;;;;;;5013804;28;20490;-66
2021/03/12 00:40:36;;;;;;;1.95;0.80;;;6.40;99.90;;;;;;5014212;28;20037;-65
2021/03/12 00:43:03;;;;;;;3.65;0.60;;;6.50;99.90;;;;;;4997263;28;20487;-65
2021/03/12 00:45:36;;;;;;;5.43;0.70;;;6.50;99.90;;;;;;5014256;28;20034;-66
2021/03/12 00:48:03;;;;;;;3.85;0.75;;;6.50;99.90;;;;;;5013792;28;20041;-66
2021/03/12 00:50:34;;;;;;;4.43;0.70;;;6.60;99.90;;;;;;4996348;28;20096;-66
2021/03/12 00:53:01;;;;;;;;;;;6.70;99.90;;;;;;5014145;28;20033;-66
2021/03/12 00:55:27;;;;;;;2.28;0.70;;;6.60;99.90;;;;;;4996641;28;19914;-65
2021/03/12 00:57:53;;;;;;;2.97;0.77;;;6.80;99.90;;;;;;5013847;28;20026;-65
2021/03/12 01:00:23;;;;;;;5.30;0.80;;;6.90;99.90;;;;;;5013857;28;20079;-65
2021/03/12 01:02:49;;;;;;;2.35;1.10;;;6.90;99.90;;;;;;4996468;28;20030;-65
2021/03/12 01:05:17;;;;;;;6.15;1.05;;;6.80;99.90;;;;;;4996367;28;20029;-65
2021/03/12 01:07:44;;;;;;;1.40;0.80;;;6.80;99.90;;;;;;5013712;28;20463;-65
2021/03/12 01:10:11;;;;;;;6.95;1.00;;;6.80;99.90;;;;;;5013527;28;20034;-65
2021/03/12 01:12:37;;;;;;;2.97;1.52;;;6.90;99.90;;;;;;5013455;28;20502;-65
2021/03/12 01:15:13;;;;;;;1.45;0.63;;;6.90;99.90;;;;;;5013262;28;20037;-65
2021/03/12 01:17:39;;;;;;;3.92;1.20;;;6.90;99.90;;;;;;5013360;28;20034;-64
2021/03/12 01:20:11;;;;;;;2.95;1.10;;;6.90;99.90;;;;;;5013119;28;20109;-65
2021/03/12 01:22:38;;;;;;;2.42;0.88;;;7.00;99.90;;;;;;5012831;28;20400;-65
2021/03/12 01:25:20;;;;;;;5.63;0.90;;;6.90;99.90;;;;;;5013290;28;20057;-65
2021/03/12 01:27:47;;;;;;;7.97;1.13;;;7.00;99.90;;;;;;4995786;28;20061;-65
2021/03/12 01:30:26;;;;;;;5.50;1.08;;;6.90;99.90;;;;;;4995863;28;20113;-65
2021/03/12 01:32:52;;;;;;;2.72;0.75;;;6.90;99.90;;;;;;4979624;28;20054;-65
2021/03/12 01:35:19;;;;;;;5.28;1.10;;;7.00;99.90;;;;;;5013267;28;20037;-65
2021/03/12 01:37:45;;;;;;;2.80;0.90;;;7.00;99.90;;;;;;4995258;28;20113;-65
2021/03/12 01:40:16;;;;;;;3.90;0.90;;;7.20;99.90;;;;;;4995741;28;20092;-65
2021/03/12 01:42:42;;;;;;;5.45;0.70;;;7.20;99.90;;;;;;5012997;28;20121;-65
2021/03/12 01:45:14;;;;;;;3.00;1.20;;;7.10;99.90;;;;;;5013124;28;20053;-65
2021/03/12 01:47:41;;;;;;;5.05;1.08;;;7.10;99.90;;;;;;5013106;28;20117;-65
2021/03/12 01:50:08;;;;;;;6.63;0.90;;;7.00;99.90;;;;;;5012999;28;20430;-65
2021/03/12 01:52:35;;;;;;;6.78;1.13;;;7.00;99.90;;;;;;4995568;28;20081;-65
2021/03/12 01:55:01;;;;;;;6.07;1.15;;;7.00;99.90;;;;;;4995316;28;20041;-65
2021/03/12 01:57:27;;;;;;;1.77;0.70;;;7.00;99.90;;;;;;5012997;28;20030;-65
2021/03/12 01:59:53;;;;;;;2.13;0.93;;;7.00;99.90;;;;;;4995232;28;20121;-65
2021/03/12 02:02:19;;;;;;;3.08;0.93;;;7.00;99.90;;;;;;4978972;28;20130;-65
2021/03/12 02:04:47;;;;;;;5.15;1.40;;;6.90;99.90;;;;;;5012486;28;20423;-63
2021/03/12 02:07:13;;;;;;;3.72;1.15;;;6.90;99.90;;;;;;4979103;28;20040;-63
2021/03/12 02:09:40;;;;;;;4.55;0.60;;;7.00;99.90;;;;;;5012501;28;20037;-64
2021/03/12 02:12:27;;;;;;;4.60;0.93;;;6.90;99.90;;;;;;5012117;28;20026;-63
2021/03/12 02:15:12;;;;;;;5.97;0.98;;;6.90;99.90;;;;;;4979629;28;20129;-64
2021/03/12 02:17:53;;;;;;;6.47;1.80;;;6.90;99.90;;;;;;5012768;28;20036;-63
2021/03/12 02:20:47;;;;;;;4.78;1.20;;;6.90;99.90;;;;;;5012637;28;20030;-63
2021/03/12 02:23:55;;;;;;;7.75;1.08;;;6.90;99.90;;;;;;4997277;28;20038;-63
2021/03/12 02:26:43;;;;;;;5.57;1.00;;;6.80;99.90;;;;;;5012250;28;20486;-63
2021/03/12 02:29:40;;;;;;;3.92;1.10;;;6.80;99.90;;;;;;4994956;28;20041;-63
2021/03/12 02:32:08;;;;;;;2.10;0.63;;;6.90;99.90;;;;;;5011866;28;20099;-63
2021/03/12 02:34:41;;;;;;;3.50;1.10;;;6.90;99.90;;;;;;4999135;28;20057;-63
2021/03/12 02:37:10;;;;;;;5.38;1.58;;;6.80;99.90;;;;;;4982983;28;20030;-63
2021/03/12 02:39:42;;;;;;;3.30;0.85;;;6.80;99.90;;;;;;5016273;28;20029;-63
2021/03/12 02:42:08;;;;;;;6.45;0.70;;;6.90;99.90;;;;;;4999383;28;20034;-63
2021/03/12 02:44:35;;;;;;;2.55;1.00;;;7.00;99.90;;;;;;4999005;28;20040;-64
2021/03/12 02:47:10;;;;;;;4.80;1.00;;;7.10;99.90;;;;;;4998448;28;20482;-63
2021/03/12 02:49:37;;;;;;;3.38;0.95;;;7.10;99.90;;;;;;4998932;28;20403;-64
2021/03/12 02:52:03;;;;;;;7.00;1.20;;;7.00;99.90;;;;;;4998558;28;20112;-64
2021/03/12 02:54:30;;;;;;;5.03;1.42;;;7.10;99.90;;;;;;5016396;28;20038;-65
2021/03/12 02:56:56;;;;;;;6.25;1.23;;;7.00;99.90;;;;;;4998535;28;20030;-65
2021/03/12 02:59:22;;;;;;;6.28;1.80;;;7.00;99.90;;;;;;5015979;28;20441;-65
2021/03/12 03:01:52;;;;;;;3.38;1.27;;;6.90;99.90;;;;;;4998410;28;20141;-65
2021/03/12 03:04:20;;;;;;;6.55;2.38;;;6.80;99.90;;;;;;4997920;28;20434;-65
2021/03/12 03:06:47;;;;;;;2.85;1.30;;;6.80;99.90;;;;;;4998558;28;20033;-65
2021/03/12 03:09:18;;;;;;;5.32;1.50;;;6.80;99.90;;;;;;5016021;28;20034;-65
2021/03/12 03:11:46;;;;;;;2.75;1.40;;;6.70;99.90;;;;;;5015920;28;20042;-65
2021/03/12 03:14:16;;;;;;;2.13;1.00;;;6.70;99.90;;;;;;4981826;28;20479;-64
2021/03/12 03:16:45;;;;;;;4.80;1.20;;;6.60;99.90;;;;;;5015868;28;20053;-64
2021/03/12 03:19:13;;;;;;;5.60;1.30;;;6.70;99.90;;;;;;5015178;28;20045;-64
2021/03/12 03:21:45;;;;;;;6.65;1.05;;;6.60;99.90;;;;;;4998141;28;20552;-63
2021/03/12 03:24:12;;;;;;;6.63;1.30;;;6.50;99.90;;;;;;4998962;28;20049;-64
2021/03/12 03:26:38;;;;;;;10.65;1.50;;;6.40;99.90;;;;;;4998139;28;20049;-64
2021/03/12 03:29:05;;;;;;;4.63;1.20;;;6.40;99.90;;;;;;5015602;28;20026;-64
2021/03/12 03:31:31;;;;;;;8.07;1.40;;;6.40;99.90;;;;;;4997505;28;20054;-64
2021/03/12 03:33:57;;;;;;;8.07;1.60;;;6.40;99.90;;;;;;5015464;28;20048;-63
2021/03/12 03:36:23;;;;;;;3.05;0.80;;;6.40;99.90;;;;;;5015157;28;20030;-64
2021/03/12 03:38:49;;;;;;;4.25;0.90;;;6.30;99.90;;;;;;5015331;28;20033;-65
2021/03/12 03:41:17;;;;;;;10.20;1.27;;;6.50;99.90;;;;;;5015413;28;20061;-64
2021/03/12 03:43:48;;;;;;;5.22;0.95;;;6.60;99.90;;;;;;5014199;28;20041;-63
2021/03/12 03:46:15;;;;;;;4.65;1.08;;;6.60;99.90;;;;;;4997987;28;20030;-63
2021/03/12 03:48:42;;;;;;;6.82;1.35;;;6.60;99.90;;;;;;5015140;28;20041;-63
2021/03/12 03:51:14;;;;;;;3.08;1.25;;;6.70;99.90;;;;;;4997674;28;20092;-63
2021/03/12 03:53:41;;;;;;;4.88;1.08;;;6.70;99.90;;;;;;4997323;28;20160;-63
2021/03/12 03:56:12;;;;;;;6.10;1.20;;;6.70;99.90;;;;;;4997553;28;20489;-64
2021/03/12 03:58:40;;;;;;;5.50;0.95;;;6.60;99.90;;;;;;4998020;28;20104;-63
2021/03/12 04:01:07;;;;;;;6.90;1.10;;;6.60;99.90;;;;;;4980975;28;20049;-63
2021/03/12 04:03:34;;;;;;;6.75;2.15;;;6.60;99.90;;;;;;4997683;28;20108;-63
2021/03/12 04:06:02;;;;;;;7.32;1.52;;;6.70;99.90;;;;;;4997257;28;20029;-64
2021/03/12 04:08:30;;;;;;;7.00;1.20;;;6.70;99.90;;;;;;4997585;28;20076;-62
2021/03/12 04:10:57;;;;;;;3.38;0.82;;;6.80;99.90;;;;;;4980851;28;20541;-64
2021/03/12 04:13:28;;;;;;;9.20;0.88;;;6.70;99.90;;;;;;5014726;28;20030;-63
2021/03/12 04:15:54;;;;;;;12.30;1.67;;;6.90;99.90;;;;;;4980889;28;20038;-64
2021/03/12 04:18:21;;;;;;;6.10;1.10;;;6.90;99.90;;;;;;4981092;28;20061;-63
2021/03/12 04:20:48;;;;;;;9.05;1.75;;;6.90;99.90;;;;;;4996480;28;20034;-63
2021/03/12 04:23:16;;;;;;;7.97;1.27;;;6.90;99.90;;;;;;4996773;28;20053;-63
2021/03/12 04:25:43;;;;;;;6.72;1.00;;;6.90;99.90;;;;;;4997226;28;20044;-63
2021/03/12 04:28:10;;;;;;;5.57;1.13;;;6.90;99.90;;;;;;5013794;28;20061;-63
2021/03/12 04:30:36;;;;;;;7.40;1.17;;;6.90;99.90;;;;;;4995778;28;20120;-63
2021/03/12 04:33:02;;;;;;;5.38;0.85;;;6.90;99.90;;;;;;4996444;28;20557;-63
2021/03/12 04:35:28;;;;;;;3.65;1.15;;;6.80;99.90;;;;;;4996633;28;20038;-63
2021/03/12 04:37:55;;;;;;;3.95;0.80;;;6.90;99.90;;;;;;5019169;28;20034;-64
2021/03/12 04:40:22;;;;;;;5.13;1.40;;;6.90;99.90;;;;;;5023123;28;20041;-64
2021/03/12 04:42:48;;;;;;;3.70;1.05;;;7.00;99.90;;;;;;5005649;28;20052;-64
2021/03/12 04:45:16;;;;;;;4.68;1.00;;;7.10;99.90;;;;;;4997086;28;20049;-64
2021/03/12 04:47:43;;;;;;;5.10;1.50;;;7.10;99.90;;;;;;5012612;28;20041;-64
2021/03/12 04:50:10;;;;;;;3.75;1.02;;;7.00;99.90;;;;;;5013876;28;20497;-66
2021/03/12 04:52:38;;;;;;;3.88;1.00;;;7.00;99.90;;;;;;4996617;28;20168;-66
2021/03/12 04:55:08;;;;;;;5.35;1.00;;;7.00;99.90;;;;;;5013571;28;20164;-66
2021/03/12 04:57:36;;;;;;;2.50;0.63;;;7.00;99.90;;;;;;4997546;28;20041;-67
2021/03/12 05:00:05;;;;;;;5.75;1.02;;;6.90;99.90;;;;;;5015883;28;20053;-67
2021/03/12 05:02:34;;;;;;;7.78;1.25;;;6.80;99.90;;;;;;5033114;28;20069;-67
2021/03/12 05:05:00;;;;;;;3.90;0.90;;;6.80;99.90;;;;;;5033066;28;20036;-67
2021/03/12 05:07:27;;;;;;;2.80;0.80;;;6.80;99.90;;;;;;5033512;28;20505;-66
2021/03/12 05:09:52;;;;;;;3.70;0.70;;;6.80;99.90;;;;;;5016066;28;20029;-66
2021/03/12 05:12:18;;;;;;;4.30;1.20;;;6.80;99.90;;;;;;5032833;28;20120;-64
2021/03/12 05:14:44;;;;;;;3.35;1.02;;;6.70;99.90;;;;;;5015741;28;20092;-64
2021/03/12 05:17:10;;;;;;;3.42;0.95;;;6.70;99.90;;;;;;5032835;28;20053;-64
2021/03/12 05:19:35;;;;;;;9.00;0.95;;;6.50;99.90;;;;;;5011893;28;20570;-65
2021/03/12 05:22:02;;;;;;;6.00;1.48;;;6.60;99.90;;;;;;5033068;28;20478;-63
2021/03/12 05:24:28;;;;;;;6.43;1.00;;;6.60;99.90;;;;;;5033054;28;20065;-64
2021/03/12 05:26:53;;;;;;;6.00;0.90;;;6.40;99.90;;;;;;5032879;28;20076;-65
2021/03/12 05:29:20;;;;;;;6.97;2.45;;;6.40;99.90;;;;;;5029212;28;20076;-64
2021/03/12 05:31:46;;;;;;;4.65;2.25;;;6.30;99.90;;;;;;5012998;28;20050;-65
2021/03/12 05:34:11;;;;;;;3.83;1.70;;;6.30;99.90;;;;;;5013144;28;20110;-69
2021/03/12 05:36:38;;;;;;;6.40;1.40;;;6.40;99.90;;;;;;4980378;28;20030;-65
2021/03/12 05:39:07;;;;;;;10.80;1.17;;;6.40;99.90;;;;;;5012668;28;20546;-66
2021/03/12 05:41:37;;;;;;;2.38;0.75;;;6.30;99.90;;;;;;5012731;28;20030;-66
2021/03/12 05:44:06;;;;;;;8.35;1.10;;;6.40;99.90;;;;;;5012664;28;20037;-65
2021/03/12 05:46:35;;;;;;;7.30;1.17;;;6.40;99.90;;;;;;5012768;28;20040;-65
2021/03/12 05:49:03;;;;;;;5.50;0.98;;;6.30;99.90;;;;;;5012939;28;20387;-64
2021/03/12 05:51:29;;;;;;;2.10;0.90;;;6.40;99.90;;;;;;5013096;28;20053;-65
2021/03/12 05:53:55;;;;;;;6.95;1.73;;;6.40;99.90;;;;;;5013001;28;20053;-65
2021/03/12 05:56:21;;;;;;;8.50;1.15;;;6.40;99.90;;;;;;5011620;28;20038;-65
2021/03/12 05:58:47;;;;;;;8.35;1.30;;;6.30;99.90;;;;;;5011747;28;20048;-65
2021/03/12 06:01:13;;;;;;;7.43;1.40;;;6.40;99.90;;;;;;5014719;28;20538;-65
2021/03/12 06:03:44;;;;;;;7.57;1.70;;;6.40;99.90;;;;;;5032498;28;20059;-65
2021/03/12 06:06:10;;;;;;;7.22;1.23;;;6.40;99.90;;;;;;5006027;28;20029;-66
2021/03/12 06:08:36;;;;;;;8.10;1.45;;;6.30;99.90;;;;;;5012278;28;20030;-65
2021/03/12 06:11:05;;;;;;;4.35;1.17;;;6.30;99.90;;;;;;5000002;28;20030;-65
2021/03/12 06:13:52;;;;;;;5.63;1.67;;;6.40;99.90;;;;;;5012538;28;20030;-65
2021/03/12 06:16:31;;;;;;;11.18;2.67;;;6.40;99.90;;;;;;5012207;28;20026;-65
2021/03/12 06:19:20;;;;;;;8.98;2.50;;;6.40;99.90;;;;;;5011752;28;20046;-65
2021/03/12 06:21:48;;;;;;;4.47;1.95;;;6.40;99.90;;;;;;5012110;28;20068;-65
2021/03/12 06:24:35;;;;;;;11.30;3.22;;;6.40;99.90;;;;;;5012208;28;20034;-65
2021/03/12 06:27:01;;;;;;;14.07;1.88;;;6.40;99.90;;;;;;5012467;28;20038;-65
2021/03/12 06:29:32;;;;;;;6.85;1.35;;;6.40;99.90;;;;;;5017015;28;20025;-65
2021/03/12 06:31:57;;;;;;;10.65;1.67;;;6.50;99.90;;;;;;5013938;28;20111;-65
2021/03/12 06:34:23;;;;;;;9.13;1.27;;;6.50;99.90;;;;;;5012430;28;20030;-65
2021/03/12 06:36:49;;;;;;;7.85;2.08;;;6.50;99.90;;;;;;4995017;28;20034;-65
2021/03/12 06:39:15;;;;;;;7.10;1.25;;;6.50;99.90;;;;;;5011273;28;20466;-65
2021/03/12 06:41:46;;;;;;;5.95;1.45;;;6.40;99.90;;;;;;5032044;28;20032;-65
2021/03/12 06:44:33;;;;;;;9.68;1.60;;;6.50;99.90;;;;;;5031900;28;20068;-65
2021/03/12 06:47:00;;;;;;;3.30;0.82;;;6.50;99.90;;;;;;5013280;28;20466;-65
2021/03/12 06:49:26;;;;;;;3.75;0.95;;;6.50;99.90;;;;;;5011161;28;20124;-65
2021/03/12 06:52:04;;;;;;;5.25;1.17;;;6.60;99.90;;;;;;5003338;28;20038;-65
2021/03/12 06:54:32;;;;;;;1.95;0.80;;;6.60;99.90;;;;;;4997963;28;20069;-65
2021/03/12 06:56:59;;;;;;;3.45;0.68;;;6.70;99.90;;;;;;5011748;28;20117;-66
2021/03/12 06:59:31;;;;;;;4.13;0.88;;;6.80;99.90;;;;;;4997306;28;20037;-65
2021/03/12 07:02:00;;;;;;;2.13;0.70;;;6.80;99.90;;;;;;4996532;28;20045;-65
2021/03/12 07:04:28;;;;;;;6.10;1.13;;;6.90;99.90;;;;;;5031011;28;20108;-66
2021/03/12 07:06:55;;;;;;;6.55;1.77;;;7.00;99.90;;;;;;5031499;28;20087;-66
2021/03/12 07:09:23;;;;;;;6.40;1.38;;;7.00;99.90;;;;;;5031353;28;20037;-65
2021/03/12 07:12:04;;;;;;;6.38;1.00;;;7.10;99.90;;;;;;5031438;28;20172;-66
2021/03/12 07:14:34;;;;;;;3.10;0.80;;;7.10;99.90;;;;;;5014197;28;20045;-66
2021/03/12 07:17:00;;;;;;;4.18;1.00;;;7.20;99.90;;;;;;5031974;28;20122;-64
2021/03/12 07:19:27;;;;;;;7.38;1.10;;;7.20;99.90;;;;;;5034315;28;20038;-66
2021/03/12 07:21:59;;;;;;;11.93;1.80;;;7.20;99.90;;;;;;5035492;28;20030;-65
2021/03/12 07:24:26;;;;;;;6.82;2.53;;;7.00;99.90;;;;;;5035200;28;20032;-65
2021/03/12 07:26:57;;;;;;;8.80;1.33;;;7.00;99.90;;;;;;5035347;28;20037;-65
2021/03/12 07:29:27;;;;;;;4.55;0.95;;;7.20;99.90;;;;;;5030970;28;20045;-65
2021/03/12 07:31:57;;;;;;;8.32;1.30;;;7.20;99.90;;;;;;4997984;28;20152;-65
2021/03/12 07:34:42;;;;;;;5.10;1.00;;;7.30;99.90;;;;;;5014941;28;20045;-65
2021/03/12 07:37:10;;;;;;;5.13;0.90;;;7.30;99.90;;;;;;4994941;28;20046;-65
2021/03/12 07:39:41;;;;;;;4.40;1.33;;;7.30;99.90;;;;;;4981370;28;20073;-65
2021/03/12 07:42:09;;;;;;;7.53;1.02;;;7.50;99.90;;;;;;5015172;28;20556;-66
2021/03/12 07:44:38;;;;;;;9.13;0.95;;;7.50;99.90;;;;;;4997491;28;20435;-66
2021/03/12 07:47:04;;;;;;;3.30;0.85;;;7.50;99.90;;;;;;4997731;28;20053;-66
2021/03/12 07:49:33;;;;;;;3.80;1.00;;;7.50;99.90;;;;;;4997632;28;20113;-66
2021/03/12 07:52:00;;;;;;;3.40;1.10;;;7.50;99.90;;;;;;5014324;28;20096;-64
2021/03/12 07:54:35;;;;;;;8.02;1.10;;;7.50;99.90;;;;;;5007030;28;20073;-63
2021/03/12 07:57:06;;;;;;;2.63;1.13;;;7.50;99.90;;;;;;5014632;28;20029;-64
2021/03/12 07:59:47;;;;;;;5.57;0.90;;;7.50;99.90;;;;;;5013569;28;20502;-65
2021/03/12 08:02:13;;;;;;;3.88;1.00;;;7.50;99.90;;;;;;5014395;28;20094;-64
2021/03/12 08:04:39;;;;;;;9.07;1.05;;;7.60;99.90;;;;;;5001405;28;20032;-65
2021/03/12 08:07:25;;;;;;;3.83;0.90;;;7.60;99.90;;;;;;5004912;28;20030;-65
2021/03/12 08:09:54;;;;;;;6.75;0.98;;;7.70;99.90;;;;;;5013332;28;20044;-65
2021/03/12 08:12:38;;;;;;;7.15;1.40;;;7.70;99.90;;;;;;5012935;28;20452;-64
2021/03/12 08:15:26;;;;;;;3.65;1.00;;;7.70;99.90;;;;;;4981797;28;20062;-65
2021/03/12 08:17:58;;;;;;;5.50;1.35;;;7.80;99.90;;;;;;4997287;28;20033;-65
2021/03/12 08:20:30;;;;;;;2.83;0.55;;;7.90;99.90;;;;;;5013909;28;20041;-64
2021/03/12 08:22:57;;;;;;;8.68;0.90;;;8.10;99.90;;;;;;5013783;28;20488;-64
2021/03/12 08:25:32;;;;;;;6.13;1.20;;;8.10;99.90;;;;;;5012964;28;20034;-64
2021/03/12 08:28:06;;;;;;;5.55;1.40;;;8.30;99.90;;;;;;5014475;28;20045;-64
2021/03/12 08:30:35;;;;;;;10.68;1.40;;;8.30;99.90;;;;;;5016026;28;20033;-64
2021/03/12 08:33:09;;;;;;;4.88;1.13;;;8.40;99.90;;;;;;5016051;28;20087;-64
2021/03/12 08:35:36;;;;;;;13.65;1.30;;;8.30;99.90;;;;;;4994437;28;20037;-65
2021/03/12 08:38:11;;;;;;;4.28;0.90;;;8.30;99.90;;;;;;5000712;28;20050;-64
2021/03/12 08:40:42;;;;;;;9.48;1.30;;;8.30;99.90;;;;;;5013464;28;20062;-65
2021/03/12 08:43:14;;;;;;;7.00;1.00;;;8.30;99.90;;;;;;5001499;28;20033;-64
2021/03/12 08:45:46;;;;;;;;;;;8.30;99.90;;;;;;5032884;28;20262;-65
2021/03/12 08:48:17;;;;;;;6.78;1.27;;;8.40;99.90;;;;;;5033474;28;20373;-65
2021/03/12 08:50:50;;;;;;;7.22;1.65;;;8.40;99.90;;;;;;5033459;28;20037;-65
2021/03/12 08:53:17;;;;;;;4.28;1.00;;;8.50;99.90;;;;;;5033567;28;20034;-65
2021/03/12 08:55:46;;;;;;;5.78;1.15;;;8.50;99.90;;;;;;5033749;28;20529;-65
2021/03/12 08:58:19;;;;;;;7.82;1.38;;;8.50;99.90;;;;;;5033715;28;20509;-65
2021/03/12 09:00:48;;;;;;;8.52;1.27;;;8.50;99.90;;;;;;5018236;28;20048;-66
2021/03/12 09:03:24;;;;;;;2.42;0.90;;;8.40;99.90;;;;;;4996537;28;20048;-65
2021/03/12 09:06:01;;;;;;;3.95;1.10;;;8.40;99.90;;;;;;5013861;28;20038;-65
2021/03/12 09:08:28;;;;;;;7.18;1.40;;;8.40;99.90;;;;;;4996349;28;20176;-64
2021/03/12 09:10:55;;;;;;;2.08;0.52;;;8.60;99.90;;;;;;5013395;28;20390;-63
2021/03/12 09:13:28;;;;;;;2.95;1.10;;;8.60;99.90;;;;;;5013420;28;20040;-65
2021/03/12 09:15:54;;;;;;;3.70;0.70;;;8.60;99.90;;;;;;4996286;28;20029;-64
2021/03/12 09:18:22;;;;;;;8.70;1.48;;;8.80;99.90;;;;;;5013467;28;20038;-64
2021/03/12 09:20:53;;;;;;;6.38;1.92;;;8.80;99.90;;;;;;5013195;28;20034;-63
2021/03/12 09:23:32;;;;;;;4.32;0.85;;;8.70;99.90;;;;;;5013121;28;20101;-64
2021/03/12 09:25:58;;;;;;;6.95;1.27;;;8.80;99.90;;;;;;5013041;28;20052;-65
2021/03/12 09:28:29;;;;;;;8.32;1.45;;;8.90;99.90;;;;;;5013364;28;20033;-63
2021/03/12 09:30:56;;;;;;;4.90;1.20;;;8.90;99.90;;;;;;5029813;28;20026;-64
2021/03/12 09:33:38;;;;;;;7.15;1.35;;;8.70;99.90;;;;;;5015075;28;20029;-65
2021/03/12 09:36:40;;;;;;;9.07;1.35;;;8.80;99.90;;;;;;5032587;28;20033;-65
2021/03/12 09:39:13;;;;;;;8.02;1.48;;;8.90;99.90;;;;;;5024940;28;20044;-65
2021/03/12 09:41:43;;;;;;;2.17;0.80;;;9.10;99.90;;;;;;5031605;28;20475;-65
2021/03/12 09:44:15;;;;;;;5.67;1.13;;;9.10;99.90;;;;;;5032970;28;20467;-65
2021/03/12 09:46:44;;;;;;;8.63;1.63;;;9.30;99.90;;;;;;5015239;28;20280;-65
2021/03/12 09:49:26;;;;;;;10.20;1.50;;;9.40;99.90;;;;;;5032819;28;20079;-66
2021/03/12 09:52:00;;;;;;;9.68;1.20;;;9.50;99.90;;;;;;5015539;28;20036;-64
2021/03/12 09:54:30;;;;;;;7.55;1.20;;;9.50;99.90;;;;;;5032601;28;20033;-64
2021/03/12 09:56:57;;;;;;;10.47;1.50;;;9.60;99.90;;;;;;4999105;28;20541;-63
2021/03/12 09:59:29;;;;;;;3.63;0.85;;;9.60;99.20;;;;;;5010701;28;20626;-64
2021/03/12 10:02:16;;;;;;;7.85;1.08;;;9.80;99.90;;;;;;5012702;28;20032;-64
2021/03/12 10:04:46;;;;;;;7.75;1.00;;;9.60;98.60;;;;;;5012419;28;20148;-63
2021/03/12 10:07:16;;;;;;;5.43;1.17;;;9.70;99.40;;;;;;5012401;28;20398;-63
2021/03/12 10:09:47;;;;;;;6.75;1.25;;;9.80;98.40;;;;;;5013012;28;20026;-63
2021/03/12 10:12:24;;;;;;;6.35;1.13;;;9.80;98.00;;;;;;4994787;28;20105;-64
2021/03/12 10:14:53;;;;;;;3.53;0.88;;;10.10;98.80;;;;;;5011767;28;20709;-64
2021/03/12 10:17:25;;;;;;;4.72;1.00;;;10.10;97.70;;;;;;5011696;28;20045;-64
2021/03/12 10:20:05;;;;;;;8.65;1.15;;;10.00;95.70;;;;;;5011482;28;20038;-64
2021/03/12 10:22:41;;;;;;;21.77;1.77;;;10.00;96.10;;;;;;4994012;28;20355;-64
2021/03/12 10:25:14;;;;;;;7.32;0.70;;;10.20;94.70;;;;;;5012530;28;20021;-64
2021/03/12 10:28:06;;;;;;;7.72;1.52;;;10.40;95.90;;;;;;5012272;28;20038;-64
2021/03/12 10:30:36;;;;;;;7.65;1.15;;;10.40;93.90;;;;;;5025516;28;20500;-62
2021/03/12 10:33:20;;;;;;;8.30;1.08;;;10.60;94.30;;;;;;5031571;28;20054;-64
2021/03/12 10:35:49;;;;;;;9.45;1.48;;;10.60;93.10;;;;;;5015682;28;20425;-65
2021/03/12 10:38:23;;;;;;;0.90;0.43;;;10.50;94.20;;;;;;5014085;28;20033;-64
2021/03/12 10:40:53;;;;;;;5.72;1.20;;;10.70;90.30;;;;;;5032295;28;20030;-64
2021/03/12 10:43:24;;;;;;;6.78;1.33;;;10.70;90.80;;;;;;5031909;28;20044;-63
2021/03/12 10:45:55;;;;;;;5.30;0.95;;;10.60;91.00;;;;;;5011165;28;20096;-65
2021/03/12 10:48:27;;;;;;;9.27;1.65;;;10.60;91.40;;;;;;5014149;28;20034;-63
2021/03/12 10:51:03;;;;;;;7.25;1.30;;;10.70;92.90;;;;;;5031689;28;20498;-63
2021/03/12 10:53:28;;;;;;;9.40;1.30;;;10.90;91.20;;;;;;5033103;28;20037;-64
2021/03/12 10:56:03;;;;;;;7.00;1.00;;;10.40;91.20;;;;;;5035925;28;20071;-62
2021/03/12 10:58:34;;;;;;;6.13;0.88;;;10.30;92.70;;;;;;5035801;28;20443;-63
2021/03/12 11:01:30;;;;;;;3.63;0.88;;;10.10;93.40;;;;;;5017971;28;20038;-63
2021/03/12 11:03:59;;;;;;;6.82;1.05;;;10.00;94.50;;;;;;5015815;28;20045;-61
2021/03/12 11:06:30;;;;;;;4.38;0.90;;;10.00;95.40;;;;;;5015235;28;20112;-63
2021/03/12 11:08:56;;;;;;;7.43;1.10;;;10.10;96.70;;;;;;5015880;28;20125;-63
2021/03/12 11:11:23;;;;;;;7.82;0.90;;;10.60;99.50;;;;;;5015836;28;20494;-65
2021/03/12 11:13:51;;;;;;;5.30;1.17;;;10.70;97.20;;;;;;5015724;28;20030;-63
2021/03/12 11:16:18;;;;;;;3.35;0.80;;;10.20;95.50;;;;;;5015343;28;20026;-63
2021/03/12 11:18:44;;;;;;;3.88;0.93;;;10.10;96.50;;;;;;5015630;28;20057;-63
2021/03/12 11:21:12;;;;;;;7.70;1.50;;;10.00;96.20;;;;;;5015624;28;20034;-63
2021/03/12 11:23:39;;;;;;;4.05;1.00;;;10.20;96.80;;;;;;5015543;28;20040;-63
2021/03/12 11:26:06;;;;;;;6.45;1.45;;;10.30;96.10;;;;;;5015542;28;20030;-63
2021/03/12 11:28:33;;;;;;;6.32;1.08;;;10.20;95.80;;;;;;5015234;28;20049;-63
2021/03/12 11:31:02;;;;;;;12.82;1.30;;;10.20;95.20;;;;;;5014972;28;20038;-62
2021/03/12 11:33:28;;;;;;;6.20;1.20;;;10.00;96.90;;;;;;5014814;28;20050;-63
2021/03/12 11:35:55;;;;;;;7.38;0.73;;;10.10;97.20;;;;;;5015407;28;20049;-63
2021/03/12 11:38:28;;;;;;;8.50;1.10;;;10.20;96.60;;;;;;4997771;28;20041;-63
2021/03/12 11:40:53;;;;;;;6.35;1.25;;;10.10;96.90;;;;;;5015331;28;20030;-63
2021/03/12 11:43:19;;;;;;;9.25;2.15;;;10.20;94.90;;;;;;5015167;28;20041;-63
2021/03/12 11:45:45;;;;;;;8.27;0.98;;;10.10;95.00;;;;;;5015117;28;20037;-62
2021/03/12 11:48:11;;;;;;;5.18;1.70;;;10.00;97.30;;;;;;4997623;28;20025;-62
2021/03/12 11:50:38;;;;;;;7.93;1.48;;;10.00;97.50;;;;;;5015115;28;20046;-63
2021/03/12 11:53:05;;;;;;;5.63;0.98;;;10.00;96.90;;;;;;4997137;28;20025;-64
2021/03/12 11:55:32;;;;;;;9.57;1.13;;;10.10;97.70;;;;;;5015013;28;20514;-63
2021/03/12 11:57:58;;;;;;;11.05;1.73;;;10.10;97.30;;;;;;5014778;28;20045;-63
2021/03/12 12:00:24;;;;;;;6.15;1.90;;;10.30;95.70;;;;;;5002423;28;20031;-63
2021/03/12 12:02:50;;;;;;;8.05;1.33;;;10.20;95.50;;;;;;4995362;28;20041;-63
2021/03/12 12:05:17;;;;;;;9.38;1.58;;;10.10;96.80;;;;;;4977123;28;20031;-62
2021/03/12 12:07:43;;;;;;;14.25;2.35;;;10.20;98.50;;;;;;4994934;28;20483;-62
2021/03/12 12:10:12;;;;;;;9.30;1.83;;;10.30;99.90;;;;;;4994897;28;20043;-61
2021/03/12 12:12:46;;;;;;;5.68;1.58;;;10.30;99.90;;;;;;4994838;28;20083;-62
2021/03/12 12:15:16;;;;;;;7.90;1.40;;;10.70;98.90;;;;;;4977364;28;20480;-62
2021/03/12 12:17:44;;;;;;;4.75;1.08;;;11.80;99.00;;;;;;4993704;28;20042;-63
2021/03/12 12:20:15;;;;;;;4.43;0.98;;;12.70;93.20;;;;;;4977889;28;20030;-62
2021/03/12 12:22:42;;;;;;;4.30;0.95;;;13.60;90.60;;;;;;4994980;28;20089;-63
2021/03/12 12:25:09;;;;;;;6.88;1.48;;;14.10;85.90;;;;;;4977362;28;20542;-62
2021/03/12 12:27:35;;;;;;;6.88;2.65;;;13.80;87.60;;;;;;4994814;28;20084;-62
2021/03/12 12:30:03;;;;;;;5.65;1.10;;;12.80;88.30;;;;;;5013612;28;20037;-62
2021/03/12 12:32:29;;;;;;;5.97;1.27;;;12.40;90.10;;;;;;5032692;28;20095;-63
2021/03/12 12:34:55;;;;;;;6.68;0.98;;;12.00;93.20;;;;;;5032281;28;20045;-63
2021/03/12 12:37:21;;;;;;;11.18;1.27;;;11.80;93.00;;;;;;5033435;28;20025;-62
2021/03/12 12:39:47;;;;;;;7.63;1.50;;;11.60;91.20;;;;;;5015955;28;20074;-63
2021/03/12 12:42:12;;;;;;;5.78;0.82;;;11.40;92.90;;;;;;5033784;28;20036;-63
2021/03/12 12:44:38;;;;;;;8.07;1.05;;;11.00;88.40;;;;;;5033412;28;20025;-63
2021/03/12 12:47:04;;;;;;;3.35;0.95;;;11.00;90.30;;;;;;5033613;28;20037;-62
2021/03/12 12:49:30;;;;;;;4.15;0.90;;;10.90;91.20;;;;;;5016032;28;20032;-64
2021/03/12 12:51:55;;;;;;;6.70;0.85;;;11.20;91.70;;;;;;5033357;28;20049;-61
2021/03/12 12:54:21;;;;;;;4.30;0.75;;;11.40;91.00;;;;;;5033700;28;20040;-62
2021/03/12 12:56:47;;;;;;;6.50;1.58;;;12.00;87.90;;;;;;5017116;28;20049;-63
2021/03/12 12:59:13;;;;;;;8.95;1.58;;;12.00;89.20;;;;;;4998900;28;20044;-62
2021/03/12 13:01:38;;;;;;;3.90;0.98;;;12.30;86.60;;;;;;5028171;28;20026;-62
2021/03/12 13:04:04;;;;;;;7.45;1.10;;;11.90;87.20;;;;;;5013322;28;20037;-62
2021/03/12 13:06:30;;;;;;;3.78;1.15;;;11.30;89.90;;;;;;5013054;28;20034;-62
2021/03/12 13:08:56;;;;;;;6.63;1.20;;;11.00;92.60;;;;;;5013044;28;20442;-63